KCPR/CPR METAR and TAF weather

Enter ICAO airport designator
Station Type Date Time Source
KCPR METAR 2021/02/28 02:53 UTC NOAA

KCPR 280253Z 35007KT 10SM OVC080 M07/M09 A2992 RMK AO2 SLP177 60001 T10721094 51037


Station Type Date Time Source
KCPR Decoded METAR 2021/02/28 02:53 UTC NOAA

NATRONA COUNTY INTERNATIONAL AIRPORT , WY, United States (KCPR) 42-54N 106-28W 1621M
Feb 27, 2021 - 09:53 PM EST / 2021.02.28 0253 UTC
Wind: from the N (350 degrees) at 8 MPH (7 KT):0
Visibility: 10 mile(s):0
Sky conditions: overcast
Temperature: 19.0 F (-7.2 C)
Windchill: 8 F (-13 C):1
Dew Point: 15.1 F (-9.4 C)
Relative Humidity: 84%
Pressure (altimeter): 29.92 in. Hg (1013 hPa)
Pressure tendency: 0.11 inches (3.7 hPa) higher than three hours ago
ob: KCPR 280253Z 35007KT 10SM OVC080 M07/M09 A2992 RMK AO2 SLP177 60001 T10721094 51037
cycle: 3

Station Type Date Time Source
KCPR TAF 2021/02/28 03:54 UTC NOAA

TAF
AMD KCPR 280252Z 2803/2824 34010KT P6SM VCSH SCT030 BKN060
TEMPO 2803/2806 3SM -SN OVC027
FM280600 33006KT P6SM BKN070
FM281100 24006KT P6SM SCT070
FM281700 23020G30KT P6SM SCT250

Example: see airport list